Time;durP1;ratioP1;P1;durP2;ratioP2;P2;SDS_P1;SDS_P2;PMS_P1;PMS_P2;Temp;Humidity;BMP_temperature;BMP_pressure;BME280_temperature;BME280_humidity;BME280_pressure;Samples;Min_cycle;Max_cycle;Signal;HPM_P1;HPM_P2
2022/05/11 00:01:52;;;;;;;8.60;5.60;;;6.80;69.70;;;;;;5096584;28;20120;-85
2022/05/11 00:04:18;;;;;;;12.25;5.82;;;6.80;69.90;;;;;;5096485;28;20476;-85
2022/05/11 00:06:45;;;;;;;9.63;5.78;;;6.70;70.00;;;;;;5096297;28;20057;-85
2022/05/11 00:09:13;;;;;;;10.15;5.88;;;6.70;70.20;;;;;;5096193;28;20366;-85
2022/05/11 00:11:39;;;;;;;8.30;5.80;;;6.60;70.20;;;;;;5096425;28;20489;-85
2022/05/11 00:14:06;;;;;;;10.65;5.53;;;6.50;70.60;;;;;;5097639;28;20097;-85
2022/05/11 00:16:33;;;;;;;8.75;6.20;;;6.50;70.70;;;;;;5096442;28;20032;-85
2022/05/11 00:18:59;;;;;;;11.55;5.38;;;6.40;70.80;;;;;;5097540;28;20020;-85
2022/05/11 00:21:25;;;;;;;10.32;5.95;;;6.40;71.10;;;;;;5097268;28;20044;-85
2022/05/11 00:23:54;;;;;;;11.05;5.70;;;6.40;71.50;;;;;;5097314;28;20028;-85
2022/05/11 00:26:20;;;;;;;11.55;5.68;;;6.30;71.70;;;;;;5097184;28;20039;-85
2022/05/11 00:28:46;;;;;;;10.00;6.20;;;6.30;71.80;;;;;;5097426;28;20043;-85
2022/05/11 00:31:12;;;;;;;10.07;5.15;;;6.20;71.90;;;;;;5097347;28;20356;-85
2022/05/11 00:33:38;;;;;;;8.25;5.78;;;6.20;72.00;;;;;;5097030;28;20020;-85
2022/05/11 00:36:09;;;;;;;8.75;5.38;;;6.10;72.20;;;;;;5096929;28;20025;-85
2022/05/11 00:38:35;;;;;;;;;;;6.10;72.40;;;;;;5097544;28;20028;-85
2022/05/11 00:41:01;;;;;;;14.30;5.50;;;6.10;73.20;;;;;;5096018;28;20338;-85
2022/05/11 00:43:41;;;;;;;10.38;5.45;;;6.00;72.60;;;;;;5097018;28;20035;-85
2022/05/11 00:46:35;;;;;;;9.27;5.57;;;6.00;72.70;;;;;;5095608;28;20050;-85
2022/05/11 00:51:53;;;;;;;8.68;4.82;;;5.90;73.50;;;;;;5097174;28;20038;-85
2022/05/11 00:54:21;;;;;;;10.30;5.60;;;5.80;73.70;;;;;;5096755;28;20107;-84
2022/05/11 00:56:51;;;;;;;8.85;4.65;;;5.80;73.70;;;;;;5096914;28;20497;-85
2022/05/11 00:59:25;;;;;;;7.78;4.90;;;5.70;73.70;;;;;;5096920;28;20032;-85
2022/05/11 01:01:51;;;;;;;8.77;5.20;;;5.70;74.10;;;;;;5096626;28;20036;-85
2022/05/11 01:04:20;;;;;;;7.25;4.45;;;5.70;74.10;;;;;;5095572;28;20020;-85
2022/05/11 01:06:47;;;;;;;8.93;5.10;;;5.60;74.20;;;;;;5095503;28;20454;-85
2022/05/11 01:09:13;;;;;;;10.00;4.82;;;5.60;74.30;;;;;;5095099;28;20025;-85
2022/05/11 01:11:49;;;;;;;8.02;4.35;;;5.60;74.30;;;;;;5094613;28;20064;-85
2022/05/11 01:14:19;;;;;;;6.72;4.60;;;5.60;74.40;;;;;;5095383;28;20476;-85
2022/05/11 01:16:46;;;;;;;7.03;4.32;;;5.50;74.70;;;;;;5096368;28;20020;-85
2022/05/11 01:19:22;;;;;;;6.47;4.40;;;5.50;74.60;;;;;;5096317;28;20020;-85
2022/05/11 01:21:54;;;;;;;7.68;4.80;;;5.50;74.80;;;;;;5094732;28;20092;-85
2022/05/11 01:24:41;;;;;;;7.60;4.80;;;5.50;75.00;;;;;;5096130;28;20449;-85
2022/05/11 01:27:40;;;;;;;8.60;4.72;;;5.40;74.90;;;;;;5095216;28;20107;-84
2022/05/11 01:30:09;;;;;;;6.78;4.68;;;5.40;75.10;;;;;;5095219;28;20052;-85
2022/05/11 01:32:36;;;;;;;5.78;4.30;;;5.40;75.00;;;;;;5094789;28;20473;-85
2022/05/11 01:35:39;;;;;;;9.68;4.72;;;5.40;75.10;;;;;;5096007;28;20474;-85
2022/05/11 01:38:30;;;;;;;6.22;4.28;;;5.40;75.40;;;;;;5095111;28;20048;-85
2022/05/11 01:40:56;;;;;;;7.15;4.43;;;5.30;75.30;;;;;;5095881;28;20024;-85
2022/05/11 01:43:24;;;;;;;5.80;4.10;;;5.30;75.50;;;;;;5095854;28;20032;-85
2022/05/11 01:45:50;;;;;;;9.73;4.10;;;5.30;75.70;;;;;;5095701;28;20017;-85
2022/05/11 01:48:16;;;;;;;7.13;4.15;;;5.30;76.00;;;;;;5095725;28;20081;-85
2022/05/11 01:50:43;;;;;;;10.38;4.60;;;5.20;76.10;;;;;;5095427;28;20047;-84
2022/05/11 01:53:09;;;;;;;6.85;4.15;;;5.20;76.20;;;;;;5095622;28;20031;-85
2022/05/11 01:55:35;;;;;;;7.50;4.25;;;5.20;76.20;;;;;;5094464;28;20047;-85
2022/05/11 01:58:02;;;;;;;6.03;3.80;;;5.20;76.00;;;;;;5094447;28;20062;-85
2022/05/11 02:00:28;;;;;;;7.32;4.20;;;5.10;76.10;;;;;;5094469;28;20024;-85
2022/05/11 02:02:54;;;;;;;6.57;3.85;;;5.10;76.30;;;;;;5095452;28;20080;-85
2022/05/11 02:08:04;;;;;;;5.85;4.00;;;5.10;76.30;;;;;;5095652;28;20459;-85
2022/05/11 02:10:30;;;;;;;7.28;4.55;;;5.10;76.60;;;;;;5095214;28;20099;-85
2022/05/11 02:12:58;;;;;;;7.72;3.90;;;5.10;76.60;;;;;;5095383;28;20032;-85
2022/05/11 02:15:25;;;;;;;9.82;4.38;;;5.00;76.60;;;;;;5093921;28;20115;-85
2022/05/11 02:17:51;;;;;;;6.25;4.10;;;5.00;76.60;;;;;;5094999;28;20028;-85
2022/05/11 02:20:18;;;;;;;9.48;4.70;;;5.00;77.00;;;;;;5095016;28;20035;-84
2022/05/11 02:22:45;;;;;;;9.43;4.38;;;5.00;76.80;;;;;;5094187;28;20040;-85
2022/05/11 02:25:13;;;;;;;6.95;3.90;;;5.00;77.20;;;;;;5093850;28;20069;-85
2022/05/11 02:27:39;;;;;;;6.15;3.95;;;5.00;76.90;;;;;;5095104;28;20027;-85
2022/05/11 02:30:07;;;;;;;5.70;4.03;;;5.00;76.70;;;;;;5093781;28;20024;-84
2022/05/11 02:32:33;;;;;;;9.57;4.70;;;5.00;76.70;;;;;;5094746;28;20533;-84
2022/05/11 02:35:16;;;;;;;6.68;4.13;;;5.00;77.00;;;;;;5093735;28;20028;-85
2022/05/11 02:37:55;;;;;;;6.88;4.50;;;5.00;77.00;;;;;;5093588;28;20028;-85
2022/05/11 02:40:29;;;;;;;10.73;4.22;;;5.00;77.30;;;;;;5093639;28;20032;-85
2022/05/11 02:42:55;;;;;;;10.00;4.72;;;5.10;77.50;;;;;;5094616;28;20417;-85
2022/05/11 02:45:22;;;;;;;14.18;4.40;;;5.10;77.00;;;;;;5094532;28;20026;-85
2022/05/11 02:47:49;;;;;;;8.13;4.45;;;5.10;77.00;;;;;;5093462;28;20414;-85
2022/05/11 02:50:23;;;;;;;7.85;3.97;;;5.10;77.00;;;;;;5094656;28;20016;-85
2022/05/11 02:52:49;;;;;;;7.78;4.40;;;5.20;77.30;;;;;;5094840;28;20034;-85
2022/05/11 02:55:15;;;;;;;9.13;4.45;;;5.20;77.50;;;;;;5093280;28;20036;-85
2022/05/11 02:57:40;;;;;;;9.40;4.63;;;5.20;77.60;;;;;;5094431;28;20485;-85
2022/05/11 03:00:09;;;;;;;8.20;4.30;;;5.30;77.90;;;;;;5093181;28;20028;-85
2022/05/11 03:02:36;;;;;;;11.80;4.60;;;5.30;77.70;;;;;;5094408;28;20039;-85
2022/05/11 03:05:02;;;;;;;8.18;4.55;;;5.30;77.70;;;;;;5094429;28;20031;-85
2022/05/11 03:07:28;;;;;;;7.53;4.57;;;5.40;77.80;;;;;;5094233;28;20031;-85
2022/05/11 03:09:54;;;;;;;8.35;4.40;;;5.40;77.50;;;;;;5093330;28;20580;-85
2022/05/11 03:12:24;;;;;;;9.90;4.47;;;5.40;77.30;;;;;;5093267;28;20146;-85
2022/05/11 03:14:53;;;;;;;6.00;3.95;;;5.40;77.10;;;;;;5093033;28;20023;-85
2022/05/11 03:17:19;;;;;;;8.27;4.25;;;5.40;77.40;;;;;;5093123;28;20493;-85
2022/05/11 03:19:45;;;;;;;8.73;4.30;;;5.50;77.50;;;;;;5092950;28;20107;-85
2022/05/11 03:22:11;;;;;;;9.98;4.15;;;5.50;77.30;;;;;;5092708;28;20508;-85
2022/05/11 03:24:37;;;;;;;10.00;4.60;;;5.60;77.40;;;;;;5093079;28;20603;-85
2022/05/11 03:27:04;;;;;;;9.25;4.75;;;5.60;77.20;;;;;;5093268;28;20382;-85
2022/05/11 03:29:30;;;;;;;7.45;3.78;;;5.70;77.40;;;;;;5092305;28;20024;-85
2022/05/11 03:34:40;;;;;;;6.47;4.15;;;5.80;77.70;;;;;;5094085;28;20157;-85
2022/05/11 03:37:11;;;;;;;9.00;4.40;;;5.90;77.70;;;;;;5092651;28;20035;-85
2022/05/11 03:39:37;;;;;;;5.70;4.05;;;5.90;77.70;;;;;;5092889;28;20032;-85
2022/05/11 03:42:07;;;;;;;6.13;4.30;;;6.00;78.00;;;;;;5093855;28;20025;-85
2022/05/11 03:44:33;;;;;;;8.25;4.10;;;6.10;77.10;;;;;;5092440;28;20070;-85
2022/05/11 03:46:59;;;;;;;7.82;3.78;;;6.20;77.20;;;;;;5092825;28;20028;-85
2022/05/11 03:49:27;;;;;;;5.95;4.13;;;6.30;76.70;;;;;;5092514;28;20022;-85
2022/05/11 03:51:53;;;;;;;11.10;4.18;;;6.40;76.00;;;;;;5092644;28;20111;-85
2022/05/11 03:54:19;;;;;;;7.13;3.60;;;6.50;75.80;;;;;;5092560;28;20043;-85
2022/05/11 03:56:45;;;;;;;8.50;3.65;;;6.60;75.60;;;;;;5094015;28;20028;-85
2022/05/11 03:59:10;;;;;;;8.88;3.45;;;6.80;75.30;;;;;;5093701;28;20036;-85
2022/05/11 04:01:36;;;;;;;7.95;3.50;;;6.90;75.00;;;;;;5092180;28;20031;-85
2022/05/11 04:04:02;;;;;;;4.78;3.42;;;7.00;74.80;;;;;;5093652;28;20107;-85
2022/05/11 04:06:29;;;;;;;7.18;3.65;;;7.20;74.60;;;;;;5093633;28;20089;-85
2022/05/11 04:08:55;;;;;;;6.90;3.70;;;7.40;74.20;;;;;;5093822;28;20044;-84
2022/05/11 04:11:22;;;;;;;11.02;3.97;;;7.50;73.80;;;;;;5092548;28;20035;-85
2022/05/11 04:13:49;;;;;;;5.82;3.35;;;7.70;73.40;;;;;;5092663;28;20073;-85
2022/05/11 04:16:16;;;;;;;5.30;3.20;;;7.90;72.90;;;;;;5093538;28;20024;-85
2022/05/11 04:18:42;;;;;;;10.02;3.40;;;8.10;72.60;;;;;;5093709;28;20458;-86
2022/05/11 04:21:09;;;;;;;4.22;2.65;;;8.30;71.30;;;;;;5092037;28;20075;-85
2022/05/11 04:23:35;;;;;;;3.40;2.72;;;8.50;69.00;;;;;;5093330;28;20103;-84
2022/05/11 04:26:00;;;;;;;6.60;2.92;;;8.80;68.90;;;;;;5092209;28;20173;-84
2022/05/11 04:28:26;;;;;;;6.47;3.47;;;9.00;67.40;;;;;;5091721;28;20024;-84
2022/05/11 04:31:00;;;;;;;4.78;2.92;;;9.30;66.00;;;;;;5093019;28;20024;-83
2022/05/11 04:33:26;;;;;;;3.78;2.88;;;9.50;65.50;;;;;;5092193;28;20032;-84
2022/05/11 04:35:51;;;;;;;6.03;3.25;;;9.80;64.60;;;;;;5091990;28;20413;-83
2022/05/11 04:38:17;;;;;;;5.25;3.85;;;10.10;63.20;;;;;;5093226;28;20024;-84
2022/05/11 04:40:43;;;;;;;5.22;3.63;;;10.30;62.80;;;;;;5091898;28;20024;-84
2022/05/11 04:43:10;;;;;;;7.40;3.97;;;10.60;62.80;;;;;;5093354;28;20021;-86
2022/05/11 04:45:38;;;;;;;8.00;3.33;;;10.90;62.80;;;;;;5093852;28;20086;-85
2022/05/11 04:48:04;;;;;;;5.18;3.30;;;11.10;60.30;;;;;;5096994;28;20020;-85
2022/05/11 04:50:29;;;;;;;4.90;3.55;;;11.30;59.80;;;;;;5095402;28;20020;-85
2022/05/11 04:52:55;;;;;;;8.48;3.42;;;11.40;59.10;;;;;;5095356;28;20066;-85
2022/05/11 04:55:21;;;;;;;9.88;3.20;;;11.50;58.70;;;;;;5095292;28;20027;-83
2022/05/11 04:57:48;;;;;;;8.57;3.33;;;11.70;58.70;;;;;;5095116;28;20059;-85
2022/05/11 05:00:14;;;;;;;4.45;2.75;;;11.80;57.90;;;;;;5096414;28;20066;-84
2022/05/11 05:02:41;;;;;;;4.60;2.90;;;11.90;57.40;;;;;;5096309;28;20021;-85
2022/05/11 05:05:08;;;;;;;5.45;2.53;;;11.90;56.70;;;;;;5096298;28;20032;-84
2022/05/11 05:07:34;;;;;;;5.03;2.50;;;11.90;56.90;;;;;;5096286;28;20027;-84
2022/05/11 05:10:04;;;;;;;6.78;3.03;;;12.00;57.20;;;;;;5095038;28;20024;-85
2022/05/11 05:12:31;;;;;;;5.65;2.63;;;12.00;56.40;;;;;;5096285;28;20560;-84
2022/05/11 05:14:56;;;;;;;4.30;2.90;;;12.10;56.40;;;;;;5095256;28;20043;-85
2022/05/11 05:17:22;;;;;;;4.78;2.90;;;12.10;56.40;;;;;;5096097;28;20374;-86
2022/05/11 05:19:49;;;;;;;3.92;2.78;;;12.10;56.70;;;;;;5094889;28;20120;-84
2022/05/11 05:22:15;;;;;;;5.03;2.65;;;12.20;56.70;;;;;;5095793;28;20048;-86
2022/05/11 05:24:42;;;;;;;6.65;3.00;;;12.30;56.60;;;;;;5094771;28;20082;-84
2022/05/11 05:27:10;;;;;;;3.67;2.55;;;12.30;56.30;;;;;;5096106;28;20023;-83
2022/05/11 05:32:20;;;;;;;4.68;2.88;;;12.50;56.70;;;;;;5096048;28;20034;-85
2022/05/11 05:34:46;;;;;;;8.38;2.92;;;12.60;55.60;;;;;;5095677;28;20401;-83
2022/05/11 05:37:13;;;;;;;8.45;2.88;;;12.70;55.70;;;;;;5094805;28;20557;-85
2022/05/11 05:39:40;;;;;;;5.47;2.75;;;12.70;54.90;;;;;;5094791;28;20028;-85
2022/05/11 05:42:06;;;;;;;7.90;2.70;;;12.80;54.90;;;;;;5094524;28;20469;-86
2022/05/11 05:44:32;;;;;;;4.07;2.70;;;12.90;55.20;;;;;;5095907;28;20020;-85
2022/05/11 05:47:06;;;;;;;4.75;2.63;;;13.00;53.90;;;;;;5094476;28;20528;-87
2022/05/11 05:49:32;;;;;;;4.57;2.92;;;13.00;53.70;;;;;;5095917;28;20020;-85
2022/05/11 05:52:02;;;;;;;5.10;2.70;;;13.10;53.90;;;;;;5094331;28;20024;-86
2022/05/11 05:54:32;;;;;;;6.10;2.65;;;13.20;54.30;;;;;;5094111;28;20119;-85
2022/05/11 05:56:58;;;;;;;4.13;2.58;;;13.30;53.00;;;;;;5095716;28;20493;-87
2022/05/11 05:59:24;;;;;;;6.15;2.40;;;13.40;52.50;;;;;;5095617;28;20035;-84
2022/05/11 06:01:50;;;;;;;3.22;2.17;;;13.40;51.90;;;;;;5095304;28;20024;-85
2022/05/11 06:04:16;;;;;;;4.07;2.50;;;13.50;52.10;;;;;;5095513;28;20382;-86
2022/05/11 06:06:42;;;;;;;4.53;2.30;;;13.60;51.90;;;;;;5095577;28;20034;-85
2022/05/11 06:09:09;;;;;;;4.95;2.78;;;13.60;51.50;;;;;;5093783;28;20020;-85
2022/05/11 06:11:36;;;;;;;9.02;3.17;;;13.60;51.40;;;;;;5095314;28;20478;-86
2022/05/11 06:14:03;;;;;;;4.45;2.75;;;13.60;51.50;;;;;;5093879;28;20381;-85
2022/05/11 06:16:29;;;;;;;4.68;2.55;;;13.70;52.00;;;;;;5094999;28;20024;-85
2022/05/11 06:18:54;;;;;;;4.22;2.63;;;13.70;51.50;;;;;;5095120;28;20024;-88
2022/05/11 06:21:20;;;;;;;3.10;2.30;;;13.80;51.20;;;;;;5094192;28;20044;-84
2022/05/11 06:23:47;;;;;;;6.47;2.75;;;13.80;51.40;;;;;;5094841;28;20086;-86
2022/05/11 06:26:14;;;;;;;3.50;2.67;;;13.80;51.70;;;;;;5094909;28;20025;-85
2022/05/11 06:28:41;;;;;;;4.60;2.60;;;13.80;52.30;;;;;;5094937;28;20021;-84
2022/05/11 06:31:11;;;;;;;6.97;2.53;;;13.90;52.60;;;;;;5093549;28;20482;-85
2022/05/11 06:33:37;;;;;;;7.13;2.58;;;14.00;52.80;;;;;;5093470;28;20032;-87
2022/05/11 06:36:04;;;;;;;4.43;2.50;;;14.10;52.80;;;;;;5093500;28;20035;-84
2022/05/11 06:38:30;;;;;;;3.75;2.28;;;14.20;52.70;;;;;;5093505;28;20035;-85
2022/05/11 06:40:56;;;;;;;5.43;2.80;;;14.40;50.90;;;;;;5094967;28;20123;-85
2022/05/11 06:43:24;;;;;;;5.30;2.72;;;14.50;51.20;;;;;;5094340;28;20024;-83
2022/05/11 06:45:50;;;;;;;3.72;2.97;;;14.70;52.70;;;;;;5094528;28;20041;-84
2022/05/11 06:48:16;;;;;;;4.13;2.35;;;14.80;52.50;;;;;;5093178;28;20122;-83
2022/05/11 06:50:42;;;;;;;7.80;2.40;;;14.90;53.10;;;;;;5093228;28;20030;-87
2022/05/11 06:53:11;;;;;;;2.80;2.35;;;14.90;51.50;;;;;;5094458;28;20059;-85
2022/05/11 07:01:15;;;;;;;4.88;2.42;;;14.90;52.20;;;;;;5065310;28;20040;-85
2022/05/11 07:03:41;;;;;;;3.25;2.17;;;14.80;51.90;;;;;;5094459;28;20036;-85
2022/05/11 07:06:07;;;;;;;2.78;2.22;;;14.80;52.40;;;;;;5094332;28;20027;-84
2022/05/11 07:08:38;;;;;;;3.97;2.22;;;14.80;52.50;;;;;;5093503;28;20016;-84
2022/05/11 07:13:49;;;;;;;4.85;2.17;;;15.10;53.20;;;;;;5094285;28;20493;-85
2022/05/11 07:16:18;;;;;;;5.25;2.30;;;15.20;52.40;;;;;;5094225;28;20028;-85
2022/05/11 07:18:44;;;;;;;5.13;2.10;;;15.20;51.60;;;;;;5094024;28;20020;-84
2022/05/11 07:21:09;;;;;;;5.38;2.80;;;15.30;51.90;;;;;;5093997;28;20452;-86
2022/05/11 07:23:35;;;;;;;5.20;2.25;;;15.30;51.50;;;;;;5093773;28;20036;-85
2022/05/11 07:26:01;;;;;;;7.38;2.50;;;15.20;51.40;;;;;;5092688;28;20016;-84
2022/05/11 07:28:27;;;;;;;3.78;2.28;;;15.30;51.20;;;;;;5093789;28;20023;-84
2022/05/11 07:30:53;;;;;;;4.97;2.20;;;15.40;51.00;;;;;;5092529;28;20382;-84
2022/05/11 07:33:19;;;;;;;4.95;2.40;;;15.50;51.10;;;;;;5093926;28;20027;-85
2022/05/11 07:35:45;;;;;;;3.17;2.13;;;15.60;51.20;;;;;;5093705;28;20080;-84
2022/05/11 07:38:14;;;;;;;6.75;2.30;;;15.60;50.80;;;;;;5093847;28;20466;-84
2022/05/11 07:40:42;;;;;;;2.53;2.30;;;15.70;50.90;;;;;;5093649;28;20031;-85
2022/05/11 07:43:08;;;;;;;6.15;3.70;;;15.80;49.80;;;;;;5093726;28;20025;-83
2022/05/11 07:45:35;;;;;;;3.42;2.40;;;15.80;49.90;;;;;;5092745;28;20134;-84
2022/05/11 07:48:01;;;;;;;3.60;2.38;;;15.90;49.60;;;;;;5092381;28;20032;-84
2022/05/11 07:50:27;;;;;;;6.72;2.90;;;15.90;49.60;;;;;;5093603;28;20027;-84
2022/05/11 07:52:54;;;;;;;2.55;2.28;;;16.00;49.80;;;;;;5092222;28;20024;-86
2022/05/11 07:55:24;;;;;;;5.20;2.60;;;16.10;49.80;;;;;;5093523;28;20463;-85
2022/05/11 08:00:35;;;;;;;3.63;2.35;;;16.30;48.50;;;;;;5093987;28;20085;-84
2022/05/11 08:03:01;;;;;;;5.78;2.50;;;16.40;49.40;;;;;;5092051;28;20123;-84
2022/05/11 08:05:27;;;;;;;5.45;2.28;;;16.50;49.40;;;;;;5093293;28;20111;-84
2022/05/11 08:07:58;;;;;;;4.72;2.17;;;16.60;48.50;;;;;;5092127;28;20466;-84
2022/05/11 08:10:33;;;;;;;3.38;2.00;;;16.60;47.80;;;;;;5094029;28;20044;-86
2022/05/11 08:13:00;;;;;;;3.60;2.25;;;16.60;47.50;;;;;;5092709;28;20063;-86
2022/05/11 08:15:27;;;;;;;4.93;1.92;;;16.40;47.00;;;;;;5092548;28;20136;-85
2022/05/11 08:17:54;;;;;;;5.50;2.28;;;16.40;47.40;;;;;;5092340;28;20544;-86
2022/05/11 08:20:23;;;;;;;3.03;2.30;;;16.40;47.60;;;;;;5092171;28;20591;-84
2022/05/11 08:22:51;;;;;;;3.07;1.93;;;16.50;48.30;;;;;;5095724;28;20051;-84
2022/05/11 08:25:20;;;;;;;5.28;2.75;;;16.60;47.50;;;;;;5097131;28;20661;-85
2022/05/11 08:27:47;;;;;;;3.97;2.42;;;16.70;47.80;;;;;;5097111;28;20392;-85
2022/05/11 08:35:45;;;;;;;6.88;2.20;;;16.80;46.80;;;;;;5097391;28;20572;-85
2022/05/11 08:38:12;;;;;;;4.25;2.20;;;16.70;47.00;;;;;;5097144;28;20103;-84
2022/05/11 08:40:37;;;;;;;7.43;5.82;;;16.70;47.00;;;;;;5097087;28;20509;-84
2022/05/11 08:43:09;;;;;;;7.50;4.22;;;16.70;46.90;;;;;;5096724;28;20056;-86
2022/05/11 08:45:54;;;;;;;6.18;2.90;;;16.60;46.90;;;;;;5096796;28;20020;-84
2022/05/11 08:48:58;;;;;;;3.80;2.50;;;16.60;47.30;;;;;;5096876;28;20066;-85
2022/05/11 08:51:36;;;;;;;4.78;2.40;;;16.70;46.90;;;;;;5092824;28;20501;-85
2022/05/11 08:54:25;;;;;;;3.05;1.90;;;16.70;47.20;;;;;;5095487;28;20055;-85
2022/05/11 08:56:55;;;;;;;4.10;2.00;;;16.80;47.20;;;;;;5096682;28;20108;-85
2022/05/11 08:59:25;;;;;;;5.50;2.80;;;16.90;47.20;;;;;;5096809;28;20111;-85
2022/05/11 09:01:58;;;;;;;3.92;2.50;;;16.90;46.00;;;;;;5095245;28;20505;-85
2022/05/11 09:04:42;;;;;;;7.00;3.28;;;16.70;46.50;;;;;;5096553;28;20571;-84
2022/05/11 09:07:09;;;;;;;6.35;3.05;;;16.70;47.30;;;;;;5095164;28;20039;-84
2022/05/11 09:09:35;;;;;;;6.38;2.60;;;16.70;47.30;;;;;;5096227;28;20020;-87
2022/05/11 09:12:01;;;;;;;4.03;2.67;;;16.70;47.50;;;;;;5095367;28;20111;-87
2022/05/11 09:14:36;;;;;;;6.22;2.67;;;16.60;47.10;;;;;;5096609;28;20566;-90
2022/05/11 09:17:06;;;;;;;3.55;2.70;;;16.50;47.40;;;;;;5095335;28;20069;-86
2022/05/11 09:19:34;;;;;;;6.07;2.42;;;16.60;47.10;;;;;;5096177;28;20454;-86
2022/05/11 09:22:17;;;;;;;6.47;2.80;;;16.60;47.10;;;;;;5094404;28;20438;-85
2022/05/11 09:24:56;;;;;;;4.80;2.60;;;16.60;47.10;;;;;;5094914;28;20502;-89
2022/05/11 09:27:26;;;;;;;6.20;2.45;;;16.70;47.60;;;;;;5094836;28;20020;-86
2022/05/11 09:30:02;;;;;;;3.28;2.55;;;16.70;47.90;;;;;;5096100;28;20020;-86
2022/05/11 09:32:42;;;;;;;6.18;2.58;;;16.80;46.90;;;;;;5094117;28;20028;-85
2022/05/11 09:35:14;;;;;;;4.85;2.50;;;16.80;47.20;;;;;;5094317;28;20058;-85
2022/05/11 09:37:42;;;;;;;3.38;2.30;;;16.80;47.10;;;;;;5094441;28;20024;-83
2022/05/11 09:40:21;;;;;;;6.13;2.80;;;16.80;47.10;;;;;;5094510;28;20028;-86
2022/05/11 09:42:52;;;;;;;4.07;2.95;;;16.80;46.50;;;;;;5095732;28;20119;-84
2022/05/11 09:45:48;;;;;;;4.15;2.35;;;16.90;46.20;;;;;;5094265;28;20381;-86
2022/05/11 09:48:19;;;;;;;2.78;2.22;;;16.90;46.90;;;;;;5095597;28;20501;-83
2022/05/11 09:50:48;;;;;;;6.90;3.20;;;16.90;46.90;;;;;;5095503;28;20099;-87
2022/05/11 09:53:38;;;;;;;3.55;2.72;;;17.00;47.30;;;;;;5095642;28;20406;-86
2022/05/11 09:56:29;;;;;;;2.88;2.17;;;16.90;47.20;;;;;;5095437;28;20028;-84
2022/05/11 09:58:55;;;;;;;4.30;2.65;;;17.00;47.40;;;;;;5094253;28;20032;-84
2022/05/11 10:01:29;;;;;;;4.47;2.30;;;17.00;47.50;;;;;;5095239;28;20130;-84
2022/05/11 10:04:04;;;;;;;4.50;2.58;;;17.00;47.50;;;;;;5095275;28;20103;-84
2022/05/11 10:06:34;;;;;;;5.05;2.38;;;17.00;46.80;;;;;;5095171;28;20027;-85
2022/05/11 10:09:01;;;;;;;;;;;17.00;47.20;;;;;;5095660;28;20527;-85
2022/05/11 10:11:48;;;;;;;2.58;2.22;;;17.00;46.90;;;;;;5094277;28;20373;-86
2022/05/11 10:22:55;;;;;;;3.95;2.60;;;17.30;46.70;;;;;;5094918;28;20091;-86
2022/05/11 10:25:35;;;;;;;4.72;2.60;;;17.40;46.10;;;;;;5093850;28;20023;-85
2022/05/11 10:28:16;;;;;;;3.45;2.33;;;17.40;46.30;;;;;;5093778;28;20028;-84
2022/05/11 10:30:47;;;;;;;3.55;1.90;;;17.50;46.30;;;;;;5094935;28;20516;-84
2022/05/11 10:33:41;;;;;;;4.55;2.30;;;17.40;47.30;;;;;;5094791;28;20020;-85
2022/05/11 10:36:27;;;;;;;4.50;2.50;;;17.50;46.60;;;;;;5093552;28;20028;-85
2022/05/11 10:39:23;;;;;;;2.70;2.15;;;17.60;46.10;;;;;;5093575;28;20471;-87
2022/05/11 10:42:08;;;;;;;7.40;2.65;;;17.60;46.20;;;;;;5094665;28;20024;-87
2022/05/11 10:44:36;;;;;;;5.50;2.83;;;17.60;45.50;;;;;;5093963;28;20016;-85
2022/05/11 10:47:11;;;;;;;5.00;2.38;;;17.60;45.60;;;;;;5093694;28;20024;-86
2022/05/11 10:49:59;;;;;;;6.53;2.25;;;17.70;46.00;;;;;;5093513;28;20119;-86
2022/05/11 10:52:35;;;;;;;3.33;2.45;;;17.80;46.20;;;;;;5093719;28;20020;-87
2022/05/11 10:55:35;;;;;;;3.20;2.00;;;17.90;45.90;;;;;;5094596;28;20135;-85
2022/05/11 10:58:04;;;;;;;3.33;2.35;;;18.10;45.90;;;;;;5093141;28;20028;-86
2022/05/11 11:00:35;;;;;;;4.45;2.58;;;18.10;45.40;;;;;;5094651;28;20466;-87
2022/05/11 11:03:38;;;;;;;2.30;2.15;;;18.10;45.00;;;;;;5092926;28;20363;-86
2022/05/11 11:09:25;;;;;;;6.13;2.45;;;18.00;42.50;;;;;;5094257;28;20073;-85
2022/05/11 11:12:03;;;;;;;4.03;2.30;;;18.00;43.10;;;;;;5092958;28;20474;-83
2022/05/11 11:14:36;;;;;;;4.82;2.45;;;18.20;43.50;;;;;;5093896;28;20095;-85
2022/05/11 11:17:05;;;;;;;3.30;2.38;;;18.30;43.50;;;;;;5093975;28;20031;-85
2022/05/11 11:19:32;;;;;;;4.40;2.92;;;18.30;43.60;;;;;;5094335;28;20027;-86
2022/05/11 11:22:00;;;;;;;5.40;3.10;;;18.30;44.10;;;;;;5092856;28;20067;-86
2022/05/11 11:24:30;;;;;;;5.47;2.60;;;18.40;44.50;;;;;;5092826;28;20111;-86
2022/05/11 11:27:02;;;;;;;5.13;4.55;;;18.40;44.30;;;;;;5092943;28;20047;-84
2022/05/11 11:29:31;;;;;;;9.43;5.38;;;18.50;44.20;;;;;;5093115;28;20111;-86
2022/05/11 11:31:58;;;;;;;6.72;3.20;;;18.60;44.70;;;;;;5093814;28;20021;-84
2022/05/11 11:34:35;;;;;;;7.68;2.60;;;18.60;44.10;;;;;;5094138;28;20012;-87
2022/05/11 11:37:32;;;;;;;7.88;3.08;;;18.50;44.00;;;;;;5091880;28;20020;-88
2022/05/11 11:40:14;;;;;;;4.90;2.50;;;18.50;44.00;;;;;;5092770;28;20020;-87
2022/05/11 11:42:45;;;;;;;5.57;2.58;;;18.40;43.90;;;;;;5093949;28;20051;-86
2022/05/11 11:45:31;;;;;;;6.95;2.70;;;18.30;43.50;;;;;;5093858;28;20031;-85
2022/05/11 11:48:19;;;;;;;10.45;3.20;;;18.40;44.30;;;;;;5093843;28;20099;-88
2022/05/11 11:50:47;;;;;;;3.72;2.33;;;18.50;44.20;;;;;;5093697;28;20500;-86
2022/05/11 11:53:27;;;;;;;4.50;2.28;;;18.90;44.40;;;;;;5093967;28;20024;-87
2022/05/11 11:55:53;;;;;;;8.07;2.40;;;19.40;43.50;;;;;;5096784;28;20027;-87
2022/05/11 11:58:30;;;;;;;4.60;2.67;;;19.80;43.30;;;;;;5098016;28;20102;-85
2022/05/11 12:01:10;;;;;;;6.93;2.63;;;20.20;43.00;;;;;;5097807;28;20081;-87
2022/05/11 12:03:56;;;;;;;4.38;2.35;;;20.50;42.60;;;;;;5096542;28;20031;-87
2022/05/11 17:20:44;;;;;;;49.10;4.90;;;15.50;49.00;;;;;;5092499;28;20856;-90
2022/05/11 17:23:10;;;;;;;771.13;185.35;;;15.20;49.10;;;;;;5091812;28;20024;-90
2022/05/11 17:25:36;;;;;;;187.35;39.53;;;15.00;50.30;;;;;;5091418;28;20435;-90
2022/05/11 17:28:01;;;;;;;85.78;19.00;;;14.90;51.40;;;;;;5091740;28;20530;-91
2022/05/11 17:30:27;;;;;;;235.05;47.60;;;14.90;52.00;;;;;;5090323;28;20032;-89
2022/05/11 17:32:53;;;;;;;78.10;17.23;;;14.80;52.30;;;;;;5091415;28;20474;-91
2022/05/11 17:35:19;;;;;;;58.75;14.07;;;14.70;52.50;;;;;;5090407;28;20107;-89
2022/05/11 17:37:45;;;;;;;45.50;12.05;;;14.70;53.00;;;;;;5090404;28;20032;-88
2022/05/11 17:40:12;;;;;;;38.63;9.13;;;14.60;53.20;;;;;;5091258;28;20082;-88
2022/05/11 17:42:41;;;;;;;33.50;8.05;;;14.50;53.00;;;;;;5090175;28;20050;-90
2022/05/11 17:45:13;;;;;;;25.23;7.45;;;14.50;53.00;;;;;;5090194;28;20078;-88
2022/05/11 17:47:38;;;;;;;23.48;7.70;;;14.40;53.20;;;;;;5089690;28;20031;-88
2022/05/11 17:50:06;;;;;;;23.13;8.70;;;14.30;53.20;;;;;;5089889;28;20028;-88
2022/05/11 17:52:33;;;;;;;23.08;9.25;;;14.30;53.90;;;;;;5090145;28;20471;-88
2022/05/11 17:54:58;;;;;;;23.27;8.35;;;14.20;54.00;;;;;;5090993;28;20028;-87
2022/05/11 17:57:25;;;;;;;19.77;7.97;;;14.10;54.10;;;;;;5090871;28;20518;-87
2022/05/11 17:59:51;;;;;;;21.27;8.82;;;14.00;54.40;;;;;;5089681;28;20036;-85
2022/05/11 18:02:20;;;;;;;24.00;9.52;;;13.90;55.60;;;;;;5089493;28;20016;-88
2022/05/11 18:04:46;;;;;;;26.00;10.30;;;13.80;55.40;;;;;;5089356;28;20055;-88
2022/05/11 18:07:12;;;;;;;19.60;9.80;;;13.70;55.50;;;;;;5090887;28;20017;-89
2022/05/11 18:09:41;;;;;;;22.08;9.52;;;13.50;55.80;;;;;;5089846;28;20031;-90
2022/05/11 18:12:08;;;;;;;34.78;9.95;;;13.40;56.40;;;;;;5089565;28;20050;-91
2022/05/11 18:14:35;;;;;;;22.50;9.45;;;13.20;56.60;;;;;;5089878;28;20397;-89
2022/05/11 18:17:00;;;;;;;16.13;8.57;;;13.00;56.90;;;;;;5089611;28;20399;-89
2022/05/11 18:19:26;;;;;;;17.77;8.82;;;12.80;57.60;;;;;;5088790;28;20082;-90
2022/05/11 18:21:52;;;;;;;17.63;8.30;;;12.60;57.80;;;;;;5090691;28;20052;-90
2022/05/11 18:24:18;;;;;;;33.47;8.73;;;12.50;58.20;;;;;;5089218;28;20074;-85
2022/05/11 18:26:44;;;;;;;20.88;9.48;;;12.30;59.40;;;;;;5088847;28;20027;-87
2022/05/11 18:29:10;;;;;;;22.98;9.10;;;12.20;61.40;;;;;;5089086;28;20390;-86
2022/05/11 18:31:36;;;;;;;19.10;10.10;;;12.00;62.00;;;;;;5078283;28;20425;-87
2022/05/11 18:34:05;;;;;;;22.52;9.38;;;11.90;62.60;;;;;;5076696;28;20028;-87
2022/05/11 18:36:33;;;;;;;28.95;9.98;;;11.80;63.10;;;;;;5076691;28;20025;-87
2022/05/11 18:38:59;;;;;;;21.75;9.88;;;11.70;63.10;;;;;;5075434;28;20055;-86
2022/05/11 18:41:24;;;;;;;23.27;8.68;;;11.60;63.50;;;;;;5076491;28;20021;-86
2022/05/11 18:43:50;;;;;;;27.95;9.40;;;11.50;64.50;;;;;;5075174;28;20441;-86
2022/05/11 18:46:16;;;;;;;26.02;10.32;;;11.40;64.10;;;;;;5076290;28;20147;-86
2022/05/11 18:48:42;;;;;;;22.92;9.90;;;11.30;64.00;;;;;;5076394;28;20024;-86
2022/05/11 18:51:08;;;;;;;26.13;9.57;;;11.30;64.30;;;;;;5076102;28;20181;-85
2022/05/11 18:53:34;;;;;;;25.67;10.05;;;11.20;64.50;;;;;;5076086;28;20024;-85
2022/05/11 18:56:00;;;;;;;30.33;10.75;;;11.10;64.70;;;;;;5074937;28;20024;-85